sensor_id;sensor_type;location;lat;lon;timestamp;pressure;altitude;pressure_sealevel;temperature;humidity
52032;BME280;38044;45.148;39.604;2023-03-04T00:02:01;100758.66;;;3.39;64.56
52032;BME280;38044;45.148;39.604;2023-03-04T00:04:27;100974.09;;;4.59;64.99
52032;BME280;38044;45.148;39.604;2023-03-04T00:06:52;100943.13;;;4.53;64.64
52032;BME280;38044;45.148;39.604;2023-03-04T00:09:18;100951.97;;;4.42;64.00
52032;BME280;38044;45.148;39.604;2023-03-04T00:11:44;100966.50;;;4.51;63.33
52032;BME280;38044;45.148;39.604;2023-03-04T00:14:10;100913.69;;;4.14;62.77
52032;BME280;38044;45.148;39.604;2023-03-04T00:16:35;100967.63;;;4.38;62.82
52032;BME280;38044;45.148;39.604;2023-03-04T00:19:01;100975.44;;;4.45;62.73
52032;BME280;38044;45.148;39.604;2023-03-04T00:21:27;100847.44;;;3.67;62.55
52032;BME280;38044;45.148;39.604;2023-03-04T00:23:53;100928.22;;;4.23;62.28
52032;BME280;38044;45.148;39.604;2023-03-04T00:26:18;100945.34;;;4.27;62.11
52032;BME280;38044;45.148;39.604;2023-03-04T00:28:44;100904.06;;;3.96;62.63
52032;BME280;38044;45.148;39.604;2023-03-04T00:31:10;100974.78;;;4.38;62.26
52032;BME280;38044;45.148;39.604;2023-03-04T00:33:37;100952.25;;;4.28;62.07
52032;BME280;38044;45.148;39.604;2023-03-04T00:36:03;100960.25;;;4.28;62.38
52032;BME280;38044;45.148;39.604;2023-03-04T00:38:29;100816.00;;;3.35;62.65
52032;BME280;38044;45.148;39.604;2023-03-04T00:40:55;100965.94;;;4.20;62.71
52032;BME280;38044;45.148;39.604;2023-03-04T00:43:21;100964.13;;;4.09;62.92
52032;BME280;38044;45.148;39.604;2023-03-04T00:45:47;100935.88;;;3.91;63.23
52032;BME280;38044;45.148;39.604;2023-03-04T00:48:13;100927.47;;;3.82;63.31
52032;BME280;38044;45.148;39.604;2023-03-04T00:50:41;100964.44;;;3.96;63.45
52032;BME280;38044;45.148;39.604;2023-03-04T00:53:07;100973.25;;;3.84;63.66
52032;BME280;38044;45.148;39.604;2023-03-04T00:55:33;100965.19;;;3.79;63.51
52032;BME280;38044;45.148;39.604;2023-03-04T00:57:59;100762.13;;;2.47;63.50
52032;BME280;38044;45.148;39.604;2023-03-04T01:00:24;100811.50;;;2.72;63.26
52032;BME280;38044;45.148;39.604;2023-03-04T01:02:50;100917.91;;;3.29;63.75
52032;BME280;38044;45.148;39.604;2023-03-04T01:05:16;100960.38;;;3.53;63.58
52032;BME280;38044;45.148;39.604;2023-03-04T01:07:42;100819.69;;;2.70;63.64
52032;BME280;38044;45.148;39.604;2023-03-04T01:10:09;100950.34;;;3.55;63.57
52032;BME280;38044;45.148;39.604;2023-03-04T01:12:35;100794.22;;;2.58;63.82
52032;BME280;38044;45.148;39.604;2023-03-04T01:15:02;100831.94;;;2.83;63.67
52032;BME280;38044;45.148;39.604;2023-03-04T01:17:28;100918.59;;;3.36;63.76
52032;BME280;38044;45.148;39.604;2023-03-04T01:19:53;100855.34;;;2.98;63.79
52032;BME280;38044;45.148;39.604;2023-03-04T01:22:19;100795.81;;;2.59;63.14
52032;BME280;38044;45.148;39.604;2023-03-04T01:24:45;100955.84;;;3.65;63.29
52032;BME280;38044;45.148;39.604;2023-03-04T01:27:11;100951.34;;;3.66;63.02
52032;BME280;38044;45.148;39.604;2023-03-04T01:29:37;100952.72;;;3.68;63.09
52032;BME280;38044;45.148;39.604;2023-03-04T01:32:03;100797.88;;;2.68;62.88
52032;BME280;38044;45.148;39.604;2023-03-04T01:34:29;100924.59;;;3.44;62.95
52032;BME280;38044;45.148;39.604;2023-03-04T01:36:54;100951.84;;;3.51;62.56
52032;BME280;38044;45.148;39.604;2023-03-04T01:39:20;100972.59;;;3.66;62.41
52032;BME280;38044;45.148;39.604;2023-03-04T01:41:46;100987.28;;;3.68;62.71
52032;BME280;38044;45.148;39.604;2023-03-04T01:44:12;100973.31;;;3.61;62.28
52032;BME280;38044;45.148;39.604;2023-03-04T01:46:40;100976.53;;;3.63;62.44
52032;BME280;38044;45.148;39.604;2023-03-04T01:49:09;100985.09;;;3.65;62.25
52032;BME280;38044;45.148;39.604;2023-03-04T01:51:38;100991.94;;;3.61;62.34
52032;BME280;38044;45.148;39.604;2023-03-04T01:54:04;100994.69;;;3.54;62.60
52032;BME280;38044;45.148;39.604;2023-03-04T01:56:35;100986.50;;;3.56;62.86
52032;BME280;38044;45.148;39.604;2023-03-04T01:59:18;100998.75;;;3.57;62.59
52032;BME280;38044;45.148;39.604;2023-03-04T02:01:46;100999.06;;;3.60;62.29
52032;BME280;38044;45.148;39.604;2023-03-04T02:04:12;100976.84;;;3.26;62.63
52032;BME280;38044;45.148;39.604;2023-03-04T02:06:39;100976.13;;;3.19;63.27
52032;BME280;38044;45.148;39.604;2023-03-04T02:09:06;101003.63;;;3.36;63.09
52032;BME280;38044;45.148;39.604;2023-03-04T02:11:33;100843.22;;;2.32;63.19
52032;BME280;38044;45.148;39.604;2023-03-04T02:14:00;100999.81;;;3.32;63.42
52032;BME280;38044;45.148;39.604;2023-03-04T02:16:26;100873.13;;;2.51;63.32
52032;BME280;38044;45.148;39.604;2023-03-04T02:18:52;100996.69;;;3.35;63.65
52032;BME280;38044;45.148;39.604;2023-03-04T02:26:50;100998.78;;;3.33;63.76
52032;BME280;38044;45.148;39.604;2023-03-04T02:29:16;101008.25;;;3.29;63.91
52032;BME280;38044;45.148;39.604;2023-03-04T02:31:50;100953.38;;;3.11;64.12
52032;BME280;38044;45.148;39.604;2023-03-04T02:34:19;101001.78;;;3.37;64.00
52032;BME280;38044;45.148;39.604;2023-03-04T02:36:47;100958.13;;;3.21;63.96
52032;BME280;38044;45.148;39.604;2023-03-04T02:41:46;100987.16;;;3.63;63.64
52032;BME280;38044;45.148;39.604;2023-03-04T02:44:18;100969.59;;;3.74;63.49
52032;BME280;38044;45.148;39.604;2023-03-04T02:46:44;101012.31;;;3.96;63.18
52032;BME280;38044;45.148;39.604;2023-03-04T02:49:11;101002.47;;;3.96;63.26
52032;BME280;38044;45.148;39.604;2023-03-04T02:51:37;100968.91;;;3.78;63.12
52032;BME280;38044;45.148;39.604;2023-03-04T02:54:11;101016.06;;;4.12;62.98
52032;BME280;38044;45.148;39.604;2023-03-04T02:56:44;101013.78;;;4.15;63.43
52032;BME280;38044;45.148;39.604;2023-03-04T02:59:10;100907.59;;;3.45;62.89
52032;BME280;38044;45.148;39.604;2023-03-04T03:01:35;100860.97;;;3.13;62.78
52032;BME280;38044;45.148;39.604;2023-03-04T03:04:01;100925.59;;;3.54;62.64
52032;BME280;38044;45.148;39.604;2023-03-04T03:06:27;100898.47;;;3.41;62.62
52032;BME280;38044;45.148;39.604;2023-03-04T03:08:53;100860.28;;;3.18;62.78
52032;BME280;38044;45.148;39.604;2023-03-04T03:11:19;101022.69;;;4.09;62.29
52032;BME280;38044;45.148;39.604;2023-03-04T03:13:45;101008.28;;;3.93;62.26
52032;BME280;38044;45.148;39.604;2023-03-04T03:16:11;101035.75;;;4.11;61.70
52032;BME280;38044;45.148;39.604;2023-03-04T03:18:36;100896.44;;;3.19;61.83
52032;BME280;38044;45.148;39.604;2023-03-04T03:21:02;101007.47;;;3.93;61.63
52032;BME280;38044;45.148;39.604;2023-03-04T03:23:28;101045.13;;;4.13;61.50
52032;BME280;38044;45.148;39.604;2023-03-04T03:25:54;100972.56;;;3.77;61.05
52032;BME280;38044;45.148;39.604;2023-03-04T03:28:20;101024.97;;;4.17;61.09
52032;BME280;38044;45.148;39.604;2023-03-04T03:30:48;100906.47;;;3.41;61.07
52032;BME280;38044;45.148;39.604;2023-03-04T03:33:14;100916.22;;;3.52;61.20
52032;BME280;38044;45.148;39.604;2023-03-04T03:35:40;101055.69;;;4.37;61.42
52032;BME280;38044;45.148;39.604;2023-03-04T03:38:05;101032.25;;;4.22;61.63
52032;BME280;38044;45.148;39.604;2023-03-04T03:40:31;101013.78;;;4.15;61.62
52032;BME280;38044;45.148;39.604;2023-03-04T03:42:57;101066.59;;;4.35;61.80
52032;BME280;38044;45.148;39.604;2023-03-04T03:45:23;101053.13;;;4.42;62.00
52032;BME280;38044;45.148;39.604;2023-03-04T03:47:49;101054.50;;;4.44;62.27
52032;BME280;38044;45.148;39.604;2023-03-04T03:50:15;101062.97;;;4.41;62.37
52032;BME280;38044;45.148;39.604;2023-03-04T03:52:40;100991.16;;;4.01;63.03
52032;BME280;38044;45.148;39.604;2023-03-04T03:55:06;100876.19;;;3.30;63.31
52032;BME280;38044;45.148;39.604;2023-03-04T03:57:32;100877.66;;;3.37;63.76
52032;BME280;38044;45.148;39.604;2023-03-04T03:59:58;100992.22;;;4.17;63.90
52032;BME280;38044;45.148;39.604;2023-03-04T04:02:24;101004.38;;;4.24;64.45
52032;BME280;38044;45.148;39.604;2023-03-04T04:04:50;101040.47;;;4.49;64.76
52032;BME280;38044;45.148;39.604;2023-03-04T04:07:16;101048.94;;;4.46;64.63
52032;BME280;38044;45.148;39.604;2023-03-04T04:09:41;101043.81;;;4.27;65.17
52032;BME280;38044;45.148;39.604;2023-03-04T04:12:07;100934.47;;;3.60;66.05
52032;BME280;38044;45.148;39.604;2023-03-04T04:14:33;101061.50;;;4.34;66.85
52032;BME280;38044;45.148;39.604;2023-03-04T04:16:59;100886.94;;;3.23;66.97
52032;BME280;38044;45.148;39.604;2023-03-04T04:19:25;101075.38;;;4.36;66.99
52032;BME280;38044;45.148;39.604;2023-03-04T04:21:51;100895.47;;;3.37;66.73
52032;BME280;38044;45.148;39.604;2023-03-04T04:24:17;101065.97;;;4.45;67.21
52032;BME280;38044;45.148;39.604;2023-03-04T04:26:43;101034.34;;;4.20;67.22
52032;BME280;38044;45.148;39.604;2023-03-04T04:29:12;101070.22;;;4.46;67.44
52032;BME280;38044;45.148;39.604;2023-03-04T04:31:38;101079.28;;;4.45;67.45
52032;BME280;38044;45.148;39.604;2023-03-04T04:34:04;100905.66;;;3.28;67.59
52032;BME280;38044;45.148;39.604;2023-03-04T04:36:30;101090.03;;;4.50;67.05
52032;BME280;38044;45.148;39.604;2023-03-04T04:38:55;100948.81;;;3.59;67.20
52032;BME280;38044;45.148;39.604;2023-03-04T04:41:24;100923.75;;;3.43;67.42
52032;BME280;38044;45.148;39.604;2023-03-04T04:43:50;101057.38;;;4.14;68.03
52032;BME280;38044;45.148;39.604;2023-03-04T04:46:17;101097.16;;;4.33;68.31
52032;BME280;38044;45.148;39.604;2023-03-04T04:48:43;101000.22;;;3.76;68.14
52032;BME280;38044;45.148;39.604;2023-03-04T04:51:09;101083.72;;;4.27;67.98
52032;BME280;38044;45.148;39.604;2023-03-04T04:53:35;101091.13;;;4.25;68.01
52032;BME280;38044;45.148;39.604;2023-03-04T04:56:17;101076.09;;;4.19;67.87
52032;BME280;38044;45.148;39.604;2023-03-04T04:58:44;101080.28;;;4.15;68.55
52032;BME280;38044;45.148;39.604;2023-03-04T05:01:10;100929.00;;;3.26;69.16
52032;BME280;38044;45.148;39.604;2023-03-04T05:03:37;101056.59;;;4.02;69.96
52032;BME280;38044;45.148;39.604;2023-03-04T05:06:05;101092.88;;;4.20;70.27
52032;BME280;38044;45.148;39.604;2023-03-04T05:08:31;101096.94;;;4.22;70.57
52032;BME280;38044;45.148;39.604;2023-03-04T05:10:57;101098.78;;;4.22;71.22
52032;BME280;38044;45.148;39.604;2023-03-04T05:13:23;101115.88;;;4.26;71.75
52032;BME280;38044;45.148;39.604;2023-03-04T05:15:53;101104.88;;;4.34;72.11
52032;BME280;38044;45.148;39.604;2023-03-04T05:18:20;101083.50;;;4.17;72.17
52032;BME280;38044;45.148;39.604;2023-03-04T05:20:51;101114.25;;;4.37;72.13
52032;BME280;38044;45.148;39.604;2023-03-04T05:23:17;101115.84;;;4.38;72.13
52032;BME280;38044;45.148;39.604;2023-03-04T05:25:43;101118.91;;;4.29;72.28
52032;BME280;38044;45.148;39.604;2023-03-04T05:28:09;101078.22;;;4.05;73.20
52032;BME280;38044;45.148;39.604;2023-03-04T05:30:39;101052.59;;;3.88;73.67
52032;BME280;38044;45.148;39.604;2023-03-04T05:33:08;100991.50;;;3.52;73.45
52032;BME280;38044;45.148;39.604;2023-03-04T05:35:36;100971.72;;;3.36;73.86
52032;BME280;38044;45.148;39.604;2023-03-04T05:38:07;101137.16;;;4.38;74.47
52032;BME280;38044;45.148;39.604;2023-03-04T05:40:34;101099.28;;;4.07;74.61
52032;BME280;38044;45.148;39.604;2023-03-04T05:42:59;101025.78;;;3.54;74.86
52032;BME280;38044;45.148;39.604;2023-03-04T05:45:26;101152.47;;;4.31;75.34
52032;BME280;38044;45.148;39.604;2023-03-04T05:47:53;101149.91;;;4.36;75.21
52032;BME280;38044;45.148;39.604;2023-03-04T05:50:20;101158.44;;;4.38;74.86
52032;BME280;38044;45.148;39.604;2023-03-04T05:52:46;101169.19;;;4.43;75.19
52032;BME280;38044;45.148;39.604;2023-03-04T05:55:12;101124.69;;;4.26;75.25
52032;BME280;38044;45.148;39.604;2023-03-04T05:57:38;101143.34;;;4.26;75.81
52032;BME280;38044;45.148;39.604;2023-03-04T06:00:05;101071.44;;;3.98;75.81
52032;BME280;38044;45.148;39.604;2023-03-04T06:02:34;101161.16;;;4.66;75.81
52032;BME280;38044;45.148;39.604;2023-03-04T06:05:01;101154.88;;;4.44;76.03
52032;BME280;38044;45.148;39.604;2023-03-04T06:07:27;101061.00;;;3.96;76.38
52032;BME280;38044;45.148;39.604;2023-03-04T06:09:52;101163.47;;;4.63;76.56
52032;BME280;38044;45.148;39.604;2023-03-04T06:12:18;101133.38;;;4.62;76.02
52032;BME280;38044;45.148;39.604;2023-03-04T06:14:44;101152.72;;;4.69;76.35
52032;BME280;38044;45.148;39.604;2023-03-04T06:17:10;101028.72;;;4.04;77.34
52032;BME280;38044;45.148;39.604;2023-03-04T06:19:36;101120.03;;;4.74;76.69
52032;BME280;38044;45.148;39.604;2023-03-04T06:22:07;101148.00;;;4.88;76.62
52032;BME280;38044;45.148;39.604;2023-03-04T06:24:33;101187.53;;;5.08;76.57
52032;BME280;38044;45.148;39.604;2023-03-04T06:26:59;101139.09;;;4.83;77.64
52032;BME280;38044;45.148;39.604;2023-03-04T06:29:25;101178.41;;;5.04;77.39
52032;BME280;38044;45.148;39.604;2023-03-04T06:31:51;101062.75;;;4.31;77.60
52032;BME280;38044;45.148;39.604;2023-03-04T06:34:17;101110.81;;;4.65;78.11
52032;BME280;38044;45.148;39.604;2023-03-04T06:36:43;101172.00;;;5.05;78.31
52032;BME280;38044;45.148;39.604;2023-03-04T06:39:09;100953.31;;;3.70;78.18
52032;BME280;38044;45.148;39.604;2023-03-04T06:41:59;101182.31;;;5.30;78.77
52032;BME280;38044;45.148;39.604;2023-03-04T06:44:25;101159.81;;;5.09;78.40
52032;BME280;38044;45.148;39.604;2023-03-04T06:46:54;101166.78;;;5.10;78.30
52032;BME280;38044;45.148;39.604;2023-03-04T06:49:19;100983.03;;;4.07;78.41
52032;BME280;38044;45.148;39.604;2023-03-04T06:54:46;101137.22;;;5.12;78.34
52032;BME280;38044;45.148;39.604;2023-03-04T06:57:12;101002.94;;;4.34;78.11
52032;BME280;38044;45.148;39.604;2023-03-04T06:59:38;101173.78;;;5.62;78.16
52032;BME280;38044;45.148;39.604;2023-03-04T07:02:05;101115.91;;;5.29;77.75
52032;BME280;38044;45.148;39.604;2023-03-04T07:04:31;101165.47;;;5.58;78.02
52032;BME280;38044;45.148;39.604;2023-03-04T07:06:57;101156.56;;;5.70;77.86
52032;BME280;38044;45.148;39.604;2023-03-04T07:09:23;101144.19;;;5.63;77.37
52032;BME280;38044;45.148;39.604;2023-03-04T07:11:48;101174.91;;;5.83;77.36
52032;BME280;38044;45.148;39.604;2023-03-04T07:14:14;101139.69;;;5.64;77.87
52032;BME280;38044;45.148;39.604;2023-03-04T07:16:40;101096.84;;;5.37;77.44
52032;BME280;38044;45.148;39.604;2023-03-04T07:19:40;101175.31;;;6.08;77.58
52032;BME280;38044;45.148;39.604;2023-03-04T07:22:09;101014.47;;;4.85;77.42
52032;BME280;38044;45.148;39.604;2023-03-04T07:24:35;101090.41;;;5.33;77.42
52032;BME280;38044;45.148;39.604;2023-03-04T07:27:01;101154.69;;;5.87;77.61
52032;BME280;38044;45.148;39.604;2023-03-04T07:29:43;100985.25;;;5.24;77.24
52032;BME280;38044;45.148;39.604;2023-03-04T07:32:34;101182.41;;;6.64;77.84
52032;BME280;38044;45.148;39.604;2023-03-04T07:35:01;100954.22;;;5.17;76.76
52032;BME280;38044;45.148;39.604;2023-03-04T07:37:51;101181.53;;;6.80;77.21
52032;BME280;38044;45.148;39.604;2023-03-04T07:40:17;101105.97;;;6.14;77.14
52032;BME280;38044;45.148;39.604;2023-03-04T07:42:53;101076.28;;;6.32;76.68
52032;BME280;38044;45.148;39.604;2023-03-04T07:45:20;101178.69;;;7.14;75.98
52032;BME280;38044;45.148;39.604;2023-03-04T07:47:47;100784.63;;;4.67;75.42
52032;BME280;38044;45.148;39.604;2023-03-04T07:50:13;100904.03;;;5.53;75.29
52032;BME280;38044;45.148;39.604;2023-03-04T07:52:44;100942.50;;;6.01;75.52
52032;BME280;38044;45.148;39.604;2023-03-04T07:55:12;100833.09;;;5.52;74.29
52032;BME280;38044;45.148;39.604;2023-03-04T07:57:39;100617.31;;;4.15;73.16
52032;BME280;38044;45.148;39.604;2023-03-04T08:00:06;100891.22;;;5.99;73.37
52032;BME280;38044;45.148;39.604;2023-03-04T08:02:32;100819.72;;;5.47;73.55
52032;BME280;38044;45.148;39.604;2023-03-04T08:04:58;101026.13;;;6.61;73.65
52032;BME280;38044;45.148;39.604;2023-03-04T08:07:24;101032.28;;;6.62;73.68
52032;BME280;38044;45.148;39.604;2023-03-04T08:09:50;101004.03;;;6.44;74.38
52032;BME280;38044;45.148;39.604;2023-03-04T08:12:15;101180.75;;;7.66;74.05
52032;BME280;38044;45.148;39.604;2023-03-04T08:14:41;101131.75;;;7.28;73.43
52032;BME280;38044;45.148;39.604;2023-03-04T08:17:07;101176.13;;;7.56;73.86
52032;BME280;38044;45.148;39.604;2023-03-04T08:19:34;101004.03;;;6.44;73.51
52032;BME280;38044;45.148;39.604;2023-03-04T08:22:01;101125.22;;;7.14;73.75
52032;BME280;38044;45.148;39.604;2023-03-04T08:24:27;101178.38;;;7.37;74.13
52032;BME280;38044;45.148;39.604;2023-03-04T08:26:53;101154.75;;;7.29;73.97
52032;BME280;38044;45.148;39.604;2023-03-04T08:29:22;101043.59;;;6.74;74.11
52032;BME280;38044;45.148;39.604;2023-03-04T08:31:49;101172.16;;;7.64;73.81
52032;BME280;38044;45.148;39.604;2023-03-04T08:34:19;101138.34;;;7.48;73.91
52032;BME280;38044;45.148;39.604;2023-03-04T08:36:45;101068.59;;;7.22;73.88
52032;BME280;38044;45.148;39.604;2023-03-04T08:39:13;101140.09;;;7.69;73.73
52032;BME280;38044;45.148;39.604;2023-03-04T08:41:39;101130.00;;;7.76;73.23
52032;BME280;38044;45.148;39.604;2023-03-04T08:44:05;101139.19;;;7.90;72.22
52032;BME280;38044;45.148;39.604;2023-03-04T08:46:33;100970.91;;;6.72;71.68
52032;BME280;38044;45.148;39.604;2023-03-04T08:48:59;101143.34;;;7.71;71.92
52032;BME280;38044;45.148;39.604;2023-03-04T08:51:24;101150.41;;;7.50;72.18
52032;BME280;38044;45.148;39.604;2023-03-04T08:53:50;101099.28;;;7.14;73.02
52032;BME280;38044;45.148;39.604;2023-03-04T08:56:16;101148.03;;;7.54;72.42
52032;BME280;38044;45.148;39.604;2023-03-04T08:58:42;101091.59;;;7.23;71.94
52032;BME280;38044;45.148;39.604;2023-03-04T09:01:10;100973.13;;;6.48;71.55
52032;BME280;38044;45.148;39.604;2023-03-04T09:03:37;101088.97;;;7.28;71.12
52032;BME280;38044;45.148;39.604;2023-03-04T09:06:05;101145.53;;;7.79;71.72
52032;BME280;38044;45.148;39.604;2023-03-04T09:08:31;101145.09;;;7.93;70.35
52032;BME280;38044;45.148;39.604;2023-03-04T09:10:57;101121.22;;;7.86;69.92
52032;BME280;38044;45.148;39.604;2023-03-04T09:13:24;101150.56;;;8.13;70.04
52032;BME280;38044;45.148;39.604;2023-03-04T09:15:51;101151.69;;;8.32;69.72
52032;BME280;38044;45.148;39.604;2023-03-04T09:18:18;101083.63;;;8.23;68.47
52032;BME280;38044;45.148;39.604;2023-03-04T09:20:45;100963.91;;;7.45;68.48
52032;BME280;38044;45.148;39.604;2023-03-04T09:23:12;101150.50;;;8.61;68.04
52032;BME280;38044;45.148;39.604;2023-03-04T09:25:38;101079.03;;;8.08;68.19
52032;BME280;38044;45.148;39.604;2023-03-04T09:28:05;101083.66;;;8.28;68.39
52032;BME280;38044;45.148;39.604;2023-03-04T09:30:32;101123.47;;;8.62;68.77
52032;BME280;38044;45.148;39.604;2023-03-04T09:32:58;101093.41;;;8.45;67.78
52032;BME280;38044;45.148;39.604;2023-03-04T09:35:24;101101.50;;;8.65;66.99
52032;BME280;38044;45.148;39.604;2023-03-04T09:37:50;101106.59;;;8.72;67.32
52032;BME280;38044;45.148;39.604;2023-03-04T09:40:44;101090.28;;;8.78;66.37
52032;BME280;38044;45.148;39.604;2023-03-04T09:43:29;101096.13;;;8.75;66.51
52032;BME280;38044;45.148;39.604;2023-03-04T09:46:02;101146.03;;;8.92;65.97
52032;BME280;38044;45.148;39.604;2023-03-04T09:48:38;101137.47;;;8.85;66.23
52032;BME280;38044;45.148;39.604;2023-03-04T09:51:16;101138.47;;;8.68;66.23
52032;BME280;38044;45.148;39.604;2023-03-04T09:53:56;101147.56;;;8.57;66.96
52032;BME280;38044;45.148;39.604;2023-03-04T09:56:25;101103.69;;;8.10;67.22
52032;BME280;38044;45.148;39.604;2023-03-04T09:59:15;101118.16;;;8.15;67.47
52032;BME280;38044;45.148;39.604;2023-03-04T10:01:52;101114.56;;;7.94;68.75
52032;BME280;38044;45.148;39.604;2023-03-04T10:06:57;101088.69;;;7.62;69.27
52032;BME280;38044;45.148;39.604;2023-03-04T10:09:45;100976.59;;;6.81;70.20
52032;BME280;38044;45.148;39.604;2023-03-04T10:12:14;101103.28;;;7.44;70.72
52032;BME280;38044;45.148;39.604;2023-03-04T10:14:46;101070.31;;;7.33;71.16
52032;BME280;38044;45.148;39.604;2023-03-04T10:17:27;101095.13;;;7.66;71.84
52032;BME280;38044;45.148;39.604;2023-03-04T10:22:41;101016.63;;;7.08;72.50
52032;BME280;38044;45.148;39.604;2023-03-04T10:25:29;101041.09;;;7.27;73.27
52032;BME280;38044;45.148;39.604;2023-03-04T10:28:02;101078.00;;;7.25;73.54
52032;BME280;38044;45.148;39.604;2023-03-04T10:33:01;100996.13;;;6.81;74.10
52032;BME280;38044;45.148;39.604;2023-03-04T10:35:32;101053.59;;;7.21;74.62
52032;BME280;38044;45.148;39.604;2023-03-04T10:38:02;101087.00;;;7.51;74.92
52032;BME280;38044;45.148;39.604;2023-03-04T10:40:28;101001.19;;;7.20;74.58
52032;BME280;38044;45.148;39.604;2023-03-04T10:43:01;101060.63;;;7.70;74.85
52032;BME280;38044;45.148;39.604;2023-03-04T10:45:37;101003.19;;;7.40;75.41
52032;BME280;38044;45.148;39.604;2023-03-04T10:48:03;100907.75;;;6.93;74.92
52032;BME280;38044;45.148;39.604;2023-03-04T10:50:30;100861.44;;;6.82;74.67
52032;BME280;38044;45.148;39.604;2023-03-04T10:52:58;101033.75;;;8.02;74.39
52032;BME280;38044;45.148;39.604;2023-03-04T10:55:28;101014.50;;;8.10;74.62
52032;BME280;38044;45.148;39.604;2023-03-04T10:58:03;101079.47;;;8.58;74.53
52032;BME280;38044;45.148;39.604;2023-03-04T11:00:32;101049.22;;;8.63;73.57
52032;BME280;38044;45.148;39.604;2023-03-04T11:05:47;100986.25;;;8.80;73.66
52032;BME280;38044;45.148;39.604;2023-03-04T11:08:21;100908.75;;;8.89;72.27
52032;BME280;38044;45.148;39.604;2023-03-04T11:10:48;101026.06;;;9.79;71.05
52032;BME280;38044;45.148;39.604;2023-03-04T11:13:22;101041.22;;;10.09;69.22
52032;BME280;38044;45.148;39.604;2023-03-04T11:18:43;101043.13;;;10.09;69.03
52032;BME280;38044;45.148;39.604;2023-03-04T11:21:16;101056.16;;;10.41;69.15
52032;BME280;38044;45.148;39.604;2023-03-04T11:24:04;101045.78;;;10.69;68.34
52032;BME280;38044;45.148;39.604;2023-03-04T11:26:44;101035.53;;;10.76;68.21
52032;BME280;38044;45.148;39.604;2023-03-04T11:31:52;101035.59;;;11.00;66.62
52032;BME280;38044;45.148;39.604;2023-03-04T11:37:14;101034.69;;;10.36;66.65
52032;BME280;38044;45.148;39.604;2023-03-04T11:39:58;101031.59;;;10.03;67.53
52032;BME280;38044;45.148;39.604;2023-03-04T11:42:52;101026.28;;;9.93;67.57
52032;BME280;38044;45.148;39.604;2023-03-04T11:46:01;101022.28;;;9.75;67.91
52032;BME280;38044;45.148;39.604;2023-03-04T11:57:28;101025.66;;;9.06;69.07
52032;BME280;38044;45.148;39.604;2023-03-04T12:00:18;101033.97;;;9.04;69.79
52032;BME280;38044;45.148;39.604;2023-03-04T12:08:47;101032.34;;;9.03;69.69
52032;BME280;38044;45.148;39.604;2023-03-04T12:19:10;100876.31;;;7.94;70.32
52032;BME280;38044;45.148;39.604;2023-03-04T12:30:34;101002.22;;;8.29;71.43
52032;BME280;38044;45.148;39.604;2023-03-04T12:44:42;100967.47;;;8.86;70.58
52032;BME280;38044;45.148;39.604;2023-03-04T12:55:55;101002.31;;;9.21;69.00
52032;BME280;38044;45.148;39.604;2023-03-04T12:58:27;100944.41;;;8.95;68.47
52032;BME280;38044;45.148;39.604;2023-03-04T13:06:28;101007.13;;;9.14;67.78
52032;BME280;38044;45.148;39.604;2023-03-04T13:09:35;100969.09;;;8.92;67.94
52032;BME280;38044;45.148;39.604;2023-03-04T13:12:19;100999.09;;;9.09;67.68
52032;BME280;38044;45.148;39.604;2023-03-04T13:17:46;100973.91;;;8.79;69.13
52032;BME280;38044;45.148;39.604;2023-03-04T13:20:35;100870.47;;;8.22;68.17
52032;BME280;38044;45.148;39.604;2023-03-04T13:41:19;100995.34;;;8.74;68.65
52032;BME280;38044;45.148;39.604;2023-03-04T13:49:02;100796.75;;;7.63;68.47
52032;BME280;38044;45.148;39.604;2023-03-04T13:51:38;100990.53;;;8.76;68.59
52032;BME280;38044;45.148;39.604;2023-03-04T13:56:42;100920.53;;;8.22;68.36
52032;BME280;38044;45.148;39.604;2023-03-04T13:59:55;100951.63;;;8.38;68.86
52032;BME280;38044;45.148;39.604;2023-03-04T14:02:13;100921.34;;;8.32;69.00
52032;BME280;38044;45.148;39.604;2023-03-04T14:07:34;100961.06;;;8.56;69.21
52032;BME280;38044;45.148;39.604;2023-03-04T14:10:21;100940.63;;;8.24;69.18
52032;BME280;38044;45.148;39.604;2023-03-04T14:12:53;100832.88;;;7.56;69.33
52032;BME280;38044;45.148;39.604;2023-03-04T14:15:24;100971.22;;;8.49;69.54
52032;BME280;38044;45.148;39.604;2023-03-04T14:17:54;100816.78;;;7.45;69.25
52032;BME280;38044;45.148;39.604;2023-03-04T14:20:29;100941.16;;;8.21;69.49
52032;BME280;38044;45.148;39.604;2023-03-04T14:23:00;100917.06;;;8.16;68.98
52032;BME280;38044;45.148;39.604;2023-03-04T14:25:29;100949.72;;;8.23;69.40
52032;BME280;38044;45.148;39.604;2023-03-04T14:28:24;100958.56;;;8.29;69.44
52032;BME280;38044;45.148;39.604;2023-03-04T14:30:51;100941.63;;;7.98;69.44
52032;BME280;38044;45.148;39.604;2023-03-04T14:33:22;100966.84;;;8.12;69.63
52032;BME280;38044;45.148;39.604;2023-03-04T14:35:51;100934.16;;;8.00;69.58
52032;BME280;38044;45.148;39.604;2023-03-04T14:38:25;100969.53;;;8.17;69.56
52032;BME280;38044;45.148;39.604;2023-03-04T14:41:05;100958.28;;;8.15;69.69
52032;BME280;38044;45.148;39.604;2023-03-04T14:43:38;100904.09;;;7.72;69.81
52032;BME280;38044;45.148;39.604;2023-03-04T14:46:10;100960.91;;;8.00;70.14
52032;BME280;38044;45.148;39.604;2023-03-04T14:48:37;100951.78;;;7.90;69.94
52032;BME280;38044;45.148;39.604;2023-03-04T14:51:03;100942.13;;;7.89;70.17
52032;BME280;38044;45.148;39.604;2023-03-04T14:53:32;100966.25;;;7.95;70.14
52032;BME280;38044;45.148;39.604;2023-03-04T14:58:31;100934.84;;;7.70;70.21
52032;BME280;38044;45.148;39.604;2023-03-04T15:03:43;100948.56;;;7.88;70.06
52032;BME280;38044;45.148;39.604;2023-03-04T15:06:19;100929.81;;;7.83;70.48